map of HAV home
HAV - Airport
Location
City:  Havana, La Habana, Cuba
Near (Alt.):La Habana
Name:JosÚ MartÝ International Airport
ICAO:MUHA
IATA:HAV

Details
Type:Airport (Aerodrome, Airfield)
Use:Public/Civil, International (customs port of entry)
Latitude:22░59'21"N (22.989167)
Longitude:82░24'33"W (-82.409166)
Elevation:210 ft (64 m)
Variation:4.91░W (WMM2015 magnetic declination)
-0.12░ annual change
Runways:1
Longest:13123 × 148 ft (4000 × 45 m), paved

Time
Time Zone:UTC-5 (DST-4)
Local Time:

Weather
METAR:MUHA 111455Z 04011KT 9000 BKN030 21/11 Q1025

Related Locations
Nearby:
Farthest:CCK: 11685 mi / 18806 km
West Island (Pulau Panjang) [Cocos (Keeling) Islands], CC

Find:

   beyond  
but within

Other Information
Maps:
NOTAMs:
Links:
Sources:

  
flag of Cuba   

Airport Diagram

Airport diagram for HAV

Airport diagram PDF

Sectional Chart

Flight Planning
at skyvector.com

Satellite Image

Google Maps Satellite view

 

Copyright © 2004-2017 Karl L. Swartz. All rights reserved.
The Great Circle Mapper name and logo are trademarks of the Great Circle Mapper.
All other trademarks mentioned herein belong to their respective owners.
Please see credits for attibutions and further copyright information.

  Follow gcmap on Facebook Follow gcmap on Twitter Follow gcmap on Google+ GCmap on LinkedIn

hCard Microformat

Geo Microformat